Time;durP1;ratioP1;P1;durP2;ratioP2;P2;SDS_P1;SDS_P2;PMS_P1;PMS_P2;Temp;Humidity;BMP_temperature;BMP_pressure;BME280_temperature;BME280_humidity;BME280_pressure;Samples;Min_cycle;Max_cycle;Signal;HPM_P1;HPM_P2
2023/03/07 14:18:43;;;;;;;10.70;8.90;;;;;;;;;;5069252;28;20570;-60
2023/03/07 14:21:09;;;;;;;13.30;8.47;;;;;;;;;;5069947;28;20386;-59
2023/03/07 14:25:07;;;;;;;14.20;10.53;;;;;;;;;;5069124;28;20569;-60
2023/03/07 14:27:47;;;;;;;11.80;9.33;;;;;;;;;;5049811;28;20494;-60
2023/03/07 14:30:15;;;;;;;10.03;8.90;;;;;;;;;;5059985;28;20460;-60
2023/03/07 14:32:40;;;;;;;11.13;8.60;;;;;;;;;;5069061;28;20438;-59
2023/03/07 14:35:13;;;;;;;10.43;8.10;;;;;;;;;;5069139;28;20473;-59
2023/03/07 14:37:40;;;;;;;12.93;9.40;;;;;;;;;;5069081;28;20913;-60
2023/03/07 14:40:10;;;;;;;12.77;8.73;;;;;;;;;;5068837;28;20442;-59
2023/03/07 14:42:48;;;;;;;11.33;8.80;;;;;;;;;;5068720;28;20418;-61
2023/03/07 14:45:20;;;;;;;12.33;8.20;;;;;;;;;;5067753;28;20449;-60
2023/03/07 14:47:55;;;;;;;12.30;8.10;;;;;;;;;;5069330;28;20428;-60
2023/03/07 14:50:22;;;;;;;10.67;7.90;;;;;;;;;;5068938;28;20449;-62
2023/03/07 14:52:48;;;;;;;10.40;7.93;;;;;;;;;;5067729;28;20448;-61
2023/03/07 14:55:19;;;;;;;13.33;8.60;;;;;;;;;;5068978;28;20411;-59
2023/03/07 14:57:48;;;;;;;14.07;8.20;;;;;;;;;;5068776;28;20418;-60
2023/03/07 15:00:23;;;;;;;9.17;8.23;;;;;;;;;;5068976;28;20797;-60
2023/03/07 15:02:56;;;;;;;10.23;8.37;;;;;;;;;;5066753;28;20481;-59
2023/03/07 15:05:24;;;;;;;13.43;8.50;;;;;;;;;;5068945;28;20418;-59
2023/03/07 15:07:50;;;;;;;10.43;8.27;;;;;;;;;;5068918;28;20421;-61
2023/03/07 15:10:23;;;;;;;16.40;8.47;;;;;;;;;;5069098;28;20532;-60
2023/03/07 15:12:51;;;;;;;9.40;8.30;;;;;;;;;;5069127;28;20410;-59
2023/03/07 15:15:23;;;;;;;8.37;7.63;;;;;;;;;;5068513;28;20440;-59
2023/03/07 15:17:49;;;;;;;8.57;7.77;;;;;;;;;;5068303;28;20528;-60
2023/03/07 15:20:18;;;;;;;7.90;7.20;;;;;;;;;;5068065;28;20571;-61
2023/03/07 15:22:44;;;;;;;7.50;6.43;;;;;;;;;;5066552;28;20952;-59
2023/03/07 15:25:20;;;;;;;8.97;7.20;;;;;;;;;;5067020;28;20906;-59
2023/03/07 15:27:47;;;;;;;9.00;7.00;;;;;;;;;;5068252;28;20452;-59
2023/03/07 15:30:24;;;;;;;10.60;7.07;;;;;;;;;;5068156;28;20904;-60
2023/03/07 15:33:02;;;;;;;10.83;7.10;;;;;;;;;;5068238;28;20428;-60
2023/03/07 15:35:28;;;;;;;12.60;7.90;;;;;;;;;;5059589;28;20988;-59
2023/03/07 15:37:55;;;;;;;7.20;6.60;;;;;;;;;;5053779;28;20427;-59
2023/03/07 15:40:30;;;;;;;9.30;7.20;;;;;;;;;;5055029;28;20435;-60
2023/03/07 15:42:58;;;;;;;8.60;7.70;;;;;;;;;;5055255;28;20450;-59
2023/03/07 15:45:32;;;;;;;7.63;6.80;;;;;;;;;;5054766;28;20422;-60
2023/03/07 15:48:00;;;;;;;11.80;6.80;;;;;;;;;;5055065;28;20900;-60
2023/03/07 15:50:26;;;;;;;7.43;6.67;;;;;;;;;;5055321;28;20431;-60
2023/03/07 15:52:58;;;;;;;11.43;7.33;;;;;;;;;;5055562;28;20426;-60
2023/03/07 15:55:26;;;;;;;9.93;8.20;;;;;;;;;;5055157;28;20427;-60
2023/03/07 15:57:54;;;;;;;10.27;7.07;;;;;;;;;;5054724;28;20480;-60
2023/03/07 16:00:20;;;;;;;9.17;6.87;;;;;;;;;;5055003;28;20433;-60
2023/03/07 16:02:46;;;;;;;10.43;7.40;;;;;;;;;;5054386;28;20509;-59
2023/03/07 16:05:21;;;;;;;8.60;6.73;;;;;;;;;;5054218;28;20411;-60
2023/03/07 16:07:48;;;;;;;9.73;6.93;;;;;;;;;;5054257;28;20437;-60
2023/03/07 16:10:14;;;;;;;7.70;6.90;;;;;;;;;;5052456;28;20470;-63
2023/03/07 16:12:45;;;;;;;7.00;6.30;;;;;;;;;;5053884;28;20434;-63
2023/03/07 16:15:18;;;;;;;9.60;7.23;;;;;;;;;;5053418;28;20423;-63
2023/03/07 16:17:44;;;;;;;9.80;7.23;;;;;;;;;;5053613;28;20430;-63
2023/03/07 16:20:17;;;;;;;12.30;8.20;;;;;;;;;;5051839;28;20431;-62
2023/03/07 16:22:43;;;;;;;9.90;8.13;;;;;;;;;;5053557;28;20465;-62
2023/03/07 16:25:11;;;;;;;14.77;8.03;;;;;;;;;;5053541;28;20443;-63
2023/03/07 16:27:41;;;;;;;15.70;8.63;;;;;;;;;;5053321;28;20407;-63
2023/03/07 16:30:19;;;;;;;9.90;7.83;;;;;;;;;;5053430;28;20434;-64
2023/03/07 16:32:45;;;;;;;11.80;8.00;;;;;;;;;;5053154;28;20430;-64
2023/03/07 16:35:13;;;;;;;10.53;8.23;;;;;;;;;;5052534;28;20416;-64
2023/03/07 16:37:39;;;;;;;12.20;8.93;;;;;;;;;;5053482;28;20411;-64
2023/03/07 16:40:07;;;;;;;12.43;8.03;;;;;;;;;;5052877;28;20918;-63
2023/03/07 16:42:33;;;;;;;9.77;7.47;;;;;;;;;;5052978;28;20411;-63
2023/03/07 16:44:59;;;;;;;11.90;8.50;;;;;;;;;;5053384;28;20403;-64
2023/03/07 16:47:25;;;;;;;10.57;7.40;;;;;;;;;;5052316;28;20445;-63
2023/03/07 16:49:51;;;;;;;8.93;7.40;;;;;;;;;;5053410;28;20476;-64
2023/03/07 16:52:22;;;;;;;8.27;7.43;;;;;;;;;;5052255;28;20436;-64
2023/03/07 16:54:48;;;;;;;10.57;8.30;;;;;;;;;;5053205;28;20998;-62
2023/03/07 16:57:15;;;;;;;8.40;6.53;;;;;;;;;;5052838;28;20397;-64
2023/03/07 16:59:47;;;;;;;7.67;6.90;;;;;;;;;;5052891;28;20777;-64
2023/03/07 17:02:17;;;;;;;11.10;6.93;;;;;;;;;;5053204;28;20438;-63
2023/03/07 17:04:43;;;;;;;13.00;8.60;;;;;;;;;;5052485;28;20470;-63
2023/03/07 17:07:20;;;;;;;7.40;6.70;;;;;;;;;;5053156;28;20446;-63
2023/03/07 17:09:46;;;;;;;9.43;7.00;;;;;;;;;;5052096;28;20406;-63
2023/03/07 17:12:13;;;;;;;6.53;5.97;;;;;;;;;;5053008;28;20792;-64
2023/03/07 17:14:39;;;;;;;11.10;7.13;;;;;;;;;;5052941;28;20422;-63
2023/03/07 17:17:06;;;;;;;12.70;7.93;;;;;;;;;;5052180;28;20918;-64
2023/03/07 17:19:32;;;;;;;12.33;7.90;;;;;;;;;;5052143;28;20553;-63
2023/03/07 17:21:59;;;;;;;11.93;7.67;;;;;;;;;;5052572;28;20410;-63
2023/03/07 17:24:26;;;;;;;28.23;15.70;;;;;;;;;;5052203;28;20467;-63
2023/03/07 17:26:53;;;;;;;41.70;21.67;;;;;;;;;;5051318;28;20836;-63
2023/03/07 17:29:27;;;;;;;43.23;20.53;;;;;;;;;;5051513;28;20414;-63
2023/03/07 17:31:53;;;;;;;13.80;9.13;;;;;;;;;;5052551;28;20415;-64
2023/03/07 17:34:29;;;;;;;19.50;10.23;;;;;;;;;;5052469;28;20430;-63
2023/03/07 17:36:56;;;;;;;19.20;11.97;;;;;;;;;;5052066;28;20465;-63
2023/03/07 17:39:22;;;;;;;16.20;8.83;;;;;;;;;;5052480;28;20463;-64
2023/03/07 17:41:48;;;;;;;14.87;9.20;;;;;;;;;;5052511;28;20510;-63
2023/03/07 17:44:14;;;;;;;26.90;10.40;;;;;;;;;;5051324;28;20549;-63
2023/03/07 17:46:43;;;;;;;23.57;12.30;;;;;;;;;;5052469;28;20393;-63
2023/03/07 17:49:09;;;;;;;21.57;11.67;;;;;;;;;;5052179;28;20855;-63
2023/03/07 17:51:34;;;;;;;16.70;11.30;;;;;;;;;;5052219;28;20386;-64
2023/03/07 17:54:01;;;;;;;18.27;10.87;;;;;;;;;;5051028;28;20389;-64
2023/03/07 17:56:27;;;;;;;12.33;9.70;;;;;;;;;;5052716;28;20419;-62
2023/03/07 17:58:53;;;;;;;19.13;13.50;;;;;;;;;;5052006;28;20936;-63
2023/03/07 18:01:19;;;;;;;13.70;9.20;;;;;;;;;;5052110;28;20509;-63
2023/03/07 18:03:45;;;;;;;12.83;9.20;;;;;;;;;;5051916;28;20886;-63
2023/03/07 18:06:11;;;;;;;11.43;8.93;;;;;;;;;;5052445;28;20465;-62
2023/03/07 18:08:38;;;;;;;12.57;7.60;;;;;;;;;;5052234;28;20411;-63
2023/03/07 18:11:13;;;;;;;10.13;7.87;;;;;;;;;;5052505;28;20913;-63
2023/03/07 18:13:39;;;;;;;9.23;8.43;;;;;;;;;;5052228;28;20409;-63
2023/03/07 18:16:06;;;;;;;9.60;8.00;;;;;;;;;;5052728;28;20470;-63
2023/03/07 18:18:33;;;;;;;9.37;7.50;;;;;;;;;;5052357;28;20417;-64
2023/03/07 18:21:04;;;;;;;14.32;8.25;;;;;;;;;;5052307;28;20400;-63
2023/03/07 18:23:30;;;;;;;11.07;8.03;;;;;;;;;;5051644;28;20218;-63
2023/03/07 18:26:06;;;;;;;17.33;9.17;;;;;;;;;;5052439;28;20792;-63
2023/03/07 18:28:36;;;;;;;9.50;8.37;;;;;;;;;;5052219;28;20360;-62
2023/03/07 18:31:04;;;;;;;11.20;8.73;;;;;;;;;;5052008;28;20405;-63
2023/03/07 18:33:33;;;;;;;8.83;7.73;;;;;;;;;;5052018;28;20473;-64
2023/03/07 18:36:00;;;;;;;8.97;7.97;;;;;;;;;;5051939;28;20394;-63
2023/03/07 18:38:26;;;;;;;8.90;7.33;;;;;;;;;;5051762;28;20438;-64
2023/03/07 18:41:01;;;;;;;12.50;9.53;;;;;;;;;;5051834;28;20434;-64
2023/03/07 18:43:27;;;;;;;16.27;10.53;;;;;;;;;;5051619;28;20466;-63
2023/03/07 18:45:53;;;;;;;15.80;8.67;;;;;;;;;;5051728;28;20513;-63
2023/03/07 18:48:19;;;;;;;16.60;9.80;;;;;;;;;;5052141;28;20403;-63
2023/03/07 18:50:54;;;;;;;11.13;8.63;;;;;;;;;;5051992;28;20389;-64
2023/03/07 18:53:20;;;;;;;12.53;9.20;;;;;;;;;;5049913;28;20409;-64
2023/03/07 18:55:46;;;;;;;14.23;9.90;;;;;;;;;;5052089;28;20780;-63
2023/03/07 18:58:12;;;;;;;9.50;8.50;;;;;;;;;;5051842;28;20414;-63
2023/03/07 19:00:38;;;;;;;10.90;9.37;;;;;;;;;;5051664;28;20422;-64
2023/03/07 19:03:04;;;;;;;11.50;9.13;;;;;;;;;;5051627;28;20421;-64
2023/03/07 19:05:30;;;;;;;8.93;8.03;;;;;;;;;;5050053;28;20422;-63
2023/03/07 19:07:56;;;;;;;10.83;8.50;;;;;;;;;;5051272;28;20439;-63
2023/03/07 19:10:24;;;;;;;8.80;7.73;;;;;;;;;;5051898;28;20789;-63
2023/03/07 19:12:52;;;;;;;13.90;9.17;;;;;;;;;;5054041;28;20435;-64
2023/03/07 19:15:18;;;;;;;9.83;8.13;;;;;;;;;;5055420;28;20390;-63
2023/03/07 19:17:44;;;;;;;16.27;9.70;;;;;;;;;;5055208;28;20443;-63
2023/03/07 19:20:11;;;;;;;11.37;8.67;;;;;;;;;;5054950;28;20444;-63
2023/03/07 19:22:37;;;;;;;12.00;9.20;;;;;;;;;;5054089;28;20419;-64
2023/03/07 19:25:03;;;;;;;10.03;8.30;;;;;;;;;;5055033;28;20488;-64
2023/03/07 19:27:30;;;;;;;10.73;9.13;;;;;;;;;;5054113;28;20409;-63
2023/03/07 19:29:56;;;;;;;10.73;8.60;;;;;;;;;;5053703;28;20488;-64
2023/03/07 19:32:23;;;;;;;10.80;9.47;;;;;;;;;;5054852;28;20504;-64
2023/03/07 19:34:49;;;;;;;12.23;9.47;;;;;;;;;;5054960;28;20473;-63
2023/03/07 19:37:15;;;;;;;17.20;9.57;;;;;;;;;;5053748;28;20427;-63
2023/03/07 19:39:41;;;;;;;10.73;8.93;;;;;;;;;;5054660;28;20879;-65
2023/03/07 19:42:07;;;;;;;16.13;9.70;;;;;;;;;;5053995;28;20397;-64
2023/03/07 19:44:33;;;;;;;15.30;9.63;;;;;;;;;;5054734;28;20436;-64
2023/03/07 19:47:02;;;;;;;10.67;9.63;;;;;;;;;;5055149;28;20411;-63
2023/03/07 19:49:28;;;;;;;13.10;10.63;;;;;;;;;;5054039;28;20385;-63
2023/03/07 19:51:54;;;;;;;13.50;10.70;;;;;;;;;;5054677;28;20422;-65
2023/03/07 19:54:21;;;;;;;11.53;9.97;;;;;;;;;;5054744;28;20419;-64
2023/03/07 19:56:47;;;;;;;14.93;10.77;;;;;;;;;;5054371;28;20735;-63
2023/03/07 19:59:13;;;;;;;15.17;10.70;;;;;;;;;;5054514;28;20414;-63
2023/03/07 20:01:39;;;;;;;16.43;10.40;;;;;;;;;;5054839;28;20413;-63
2023/03/07 20:04:06;;;;;;;11.83;9.60;;;;;;;;;;5054870;28;20450;-64
2023/03/07 20:06:32;;;;;;;11.73;10.18;;;;;;;;;;5053988;28;20470;-62
2023/03/07 20:08:59;;;;;;;15.00;10.93;;;;;;;;;;5054859;28;20191;-64
2023/03/07 20:11:26;;;;;;;15.73;10.80;;;;;;;;;;5054569;28;20747;-64
2023/03/07 20:13:53;;;;;;;14.73;10.43;;;;;;;;;;5054480;28;20922;-62
2023/03/07 20:16:20;;;;;;;15.00;11.63;;;;;;;;;;5052681;28;20472;-62
2023/03/07 20:18:52;;;;;;;16.23;11.17;;;;;;;;;;5054372;28;20771;-62
2023/03/07 20:21:19;;;;;;;20.03;11.87;;;;;;;;;;5054150;28;20411;-63
2023/03/07 20:23:45;;;;;;;16.97;11.20;;;;;;;;;;5054270;28;20474;-63
2023/03/07 20:26:13;;;;;;;15.47;11.13;;;;;;;;;;5054292;28;20463;-63
2023/03/07 20:28:40;;;;;;;18.83;12.40;;;;;;;;;;5054332;28;20495;-64
2023/03/07 20:31:08;;;;;;;12.67;10.73;;;;;;;;;;5054148;28;20402;-62
2023/03/07 20:33:35;;;;;;;18.70;11.50;;;;;;;;;;5054044;28;20414;-62
2023/03/07 20:36:05;;;;;;;20.90;12.23;;;;;;;;;;5054027;28;20415;-61
2023/03/07 20:38:32;;;;;;;19.07;13.00;;;;;;;;;;5054031;28;20455;-63
2023/03/07 20:41:02;;;;;;;20.50;13.60;;;;;;;;;;5054159;28;20411;-61
2023/03/07 20:43:28;;;;;;;19.80;11.75;;;;;;;;;;5053946;28;20898;-62
2023/03/07 20:45:54;;;;;;;19.60;13.10;;;;;;;;;;5054071;28;20172;-63
2023/03/07 20:48:20;;;;;;;18.47;12.20;;;;;;;;;;5053900;28;20435;-63
2023/03/07 20:50:46;;;;;;;15.93;12.77;;;;;;;;;;5053725;28;20485;-64
2023/03/07 20:53:12;;;;;;;18.93;12.23;;;;;;;;;;5053711;28;20413;-62
2023/03/07 20:55:37;;;;;;;16.50;12.40;;;;;;;;;;5053590;28;20422;-62
2023/03/07 20:58:04;;;;;;;14.97;11.67;;;;;;;;;;5053894;28;20410;-63
2023/03/07 21:00:32;;;;;;;18.63;12.10;;;;;;;;;;5053196;28;20397;-62
2023/03/07 21:02:58;;;;;;;18.58;12.82;;;;;;;;;;5051207;28;20536;-62
2023/03/07 21:05:24;;;;;;;18.10;11.37;;;;;;;;;;5053117;28;20624;-62
2023/03/07 21:07:52;;;;;;;16.70;12.20;;;;;;;;;;5053405;28;20435;-63
2023/03/07 21:10:18;;;;;;;17.03;12.20;;;;;;;;;;5053371;28;20393;-61
2023/03/07 21:12:44;;;;;;;19.10;12.77;;;;;;;;;;5053473;28;20382;-63
2023/03/07 21:15:10;;;;;;;16.50;12.80;;;;;;;;;;5053086;28;20384;-62
2023/03/07 21:17:36;;;;;;;15.77;12.40;;;;;;;;;;5053298;28;20419;-63
2023/03/07 21:20:04;;;;;;;15.40;12.90;;;;;;;;;;5053344;28;20390;-63
2023/03/07 21:22:30;;;;;;;22.20;12.50;;;;;;;;;;5053332;28;20377;-61
2023/03/07 21:24:56;;;;;;;16.63;11.37;;;;;;;;;;5052969;28;20938;-63
2023/03/07 21:27:22;;;;;;;14.47;11.53;;;;;;;;;;5053000;28;20787;-62
2023/03/07 21:29:48;;;;;;;26.40;13.20;;;;;;;;;;5053105;28;20418;-63
2023/03/07 21:32:14;;;;;;;18.37;12.87;;;;;;;;;;5052681;28;20494;-63
2023/03/07 21:34:40;;;;;;;16.80;12.33;;;;;;;;;;5051640;28;20438;-63
2023/03/07 21:37:06;;;;;;;16.63;12.48;;;;;;;;;;5052753;28;20824;-62
2023/03/07 21:39:32;;;;;;;20.70;13.87;;;;;;;;;;5053256;28;20188;-61
2023/03/07 21:41:58;;;;;;;22.33;14.20;;;;;;;;;;5052781;28;20409;-61
2023/03/07 21:44:24;;;;;;;22.00;13.27;;;;;;;;;;5052906;28;20507;-63
2023/03/07 21:46:50;;;;;;;15.53;11.93;;;;;;;;;;5051828;28;20496;-62
2023/03/07 21:49:16;;;;;;;15.43;12.33;;;;;;;;;;5053050;28;20444;-63
2023/03/07 21:51:42;;;;;;;18.33;13.20;;;;;;;;;;5052724;28;20447;-62
2023/03/07 21:54:08;;;;;;;19.87;11.97;;;;;;;;;;5051895;28;20442;-61
2023/03/07 21:56:34;;;;;;;19.00;12.97;;;;;;;;;;5052578;28;20416;-62
2023/03/07 21:59:00;;;;;;;20.07;12.90;;;;;;;;;;5052592;28;20409;-62
2023/03/07 22:01:29;;;;;;;20.35;13.05;;;;;;;;;;5052845;28;20411;-61
2023/03/07 22:03:56;;;;;;;24.40;13.70;;;;;;;;;;5052604;28;20216;-62
2023/03/07 22:06:23;;;;;;;19.23;13.70;;;;;;;;;;5053129;28;20411;-63
2023/03/07 22:08:49;;;;;;;17.90;13.03;;;;;;;;;;5052572;28;20418;-61
2023/03/07 22:11:15;;;;;;;20.27;13.90;;;;;;;;;;5052110;28;20411;-62
2023/03/07 22:13:41;;;;;;;17.43;12.57;;;;;;;;;;5052401;28;20794;-62
2023/03/07 22:16:10;;;;;;;18.93;14.10;;;;;;;;;;5052397;28;20579;-61
2023/03/07 22:18:38;;;;;;;17.30;12.70;;;;;;;;;;5052555;28;20438;-61
2023/03/07 22:21:05;;;;;;;19.13;13.52;;;;;;;;;;5052044;28;20470;-62
2023/03/07 22:23:31;;;;;;;26.50;14.30;;;;;;;;;;5052138;28;20208;-62
2023/03/07 22:26:01;;;;;;;17.63;13.03;;;;;;;;;;5052164;28;20431;-61
2023/03/07 22:28:30;;;;;;;27.45;14.32;;;;;;;;;;5052186;28;20403;-61
2023/03/07 22:31:00;;;;;;;18.77;12.83;;;;;;;;;;5051861;28;20180;-60
2023/03/07 22:33:28;;;;;;;20.83;13.60;;;;;;;;;;5052005;28;20836;-60
2023/03/07 22:36:02;;;;;;;21.42;13.25;;;;;;;;;;5052112;28;20235;-61
2023/03/07 22:38:28;;;;;;;20.73;13.20;;;;;;;;;;5051990;28;20212;-63
2023/03/07 22:40:59;;;;;;;16.67;12.90;;;;;;;;;;5052044;28;20404;-61
2023/03/07 22:43:25;;;;;;;19.37;13.60;;;;;;;;;;5051962;28;20218;-61
2023/03/07 22:45:51;;;;;;;21.00;13.20;;;;;;;;;;5054480;28;20485;-61
2023/03/07 22:48:17;;;;;;;19.17;13.53;;;;;;;;;;5055996;28;20445;-62
2023/03/07 22:50:43;;;;;;;16.20;12.55;;;;;;;;;;5056066;28;20402;-61
2023/03/07 22:53:09;;;;;;;19.23;13.53;;;;;;;;;;5056046;28;20314;-61
2023/03/07 22:55:42;;;;;;;19.87;13.60;;;;;;;;;;5056027;28;20438;-61
2023/03/07 22:58:09;;;;;;;19.77;12.73;;;;;;;;;;5055759;28;20416;-61
2023/03/07 23:00:35;;;;;;;19.67;12.70;;;;;;;;;;5055650;28;20204;-61
2023/03/07 23:03:01;;;;;;;20.90;13.13;;;;;;;;;;5055548;28;20498;-61
2023/03/07 23:05:27;;;;;;;18.63;13.47;;;;;;;;;;5055524;28;20492;-61
2023/03/07 23:07:53;;;;;;;21.77;13.73;;;;;;;;;;5055495;28;20426;-61
2023/03/07 23:10:19;;;;;;;20.37;13.80;;;;;;;;;;5055168;28;20422;-61
2023/03/07 23:12:48;;;;;;;18.43;13.60;;;;;;;;;;5055458;28;20391;-61
2023/03/07 23:15:14;;;;;;;17.90;13.00;;;;;;;;;;5055484;28;20377;-61
2023/03/07 23:17:40;;;;;;;21.13;13.40;;;;;;;;;;5055517;28;20431;-62
2023/03/07 23:20:07;;;;;;;22.33;14.00;;;;;;;;;;5055553;28;20378;-60
2023/03/07 23:22:35;;;;;;;21.17;13.40;;;;;;;;;;5037683;28;20786;-61
2023/03/07 23:25:01;;;;;;;22.80;14.15;;;;;;;;;;5055047;28;20975;-60
2023/03/07 23:27:27;;;;;;;23.23;13.77;;;;;;;;;;5055203;28;20200;-61
2023/03/07 23:29:53;;;;;;;18.97;12.70;;;;;;;;;;5055235;28;20406;-61
2023/03/07 23:32:19;;;;;;;18.77;13.30;;;;;;;;;;5054026;28;20389;-61
2023/03/07 23:34:45;;;;;;;18.77;13.27;;;;;;;;;;5055046;28;20952;-60
2023/03/07 23:37:13;;;;;;;17.23;12.50;;;;;;;;;;5055184;28;20423;-60
2023/03/07 23:39:39;;;;;;;17.85;13.57;;;;;;;;;;5055096;28;20207;-61
2023/03/07 23:42:05;;;;;;;21.07;13.37;;;;;;;;;;5054954;28;20184;-60
2023/03/07 23:44:31;;;;;;;16.73;12.20;;;;;;;;;;5055154;28;20790;-62
2023/03/07 23:46:57;;;;;;;25.70;13.77;;;;;;;;;;5053174;28;20179;-63
2023/03/07 23:49:25;;;;;;;20.63;13.30;;;;;;;;;;5054959;28;20777;-61
2023/03/07 23:51:51;;;;;;;20.30;13.50;;;;;;;;;;5055075;28;20979;-63
2023/03/07 23:54:17;;;;;;;20.43;12.50;;;;;;;;;;5055008;28;20425;-62
2023/03/07 23:56:43;;;;;;;20.03;13.00;;;;;;;;;;5054112;28;20905;-62
2023/03/07 23:59:09;;;;;;;19.10;13.03;;;;;;;;;;5054364;28;20389;-62
